Time;durP1;ratioP1;P1;durP2;ratioP2;P2;SDS_P1;SDS_P2;PMS_P1;PMS_P2;Temp;Humidity;BMP_temperature;BMP_pressure;BME280_temperature;BME280_humidity;BME280_pressure;Samples;Min_cycle;Max_cycle;Signal;HPM_P1;HPM_P2
2022/01/31 00:01:03;;;;;;;18.55;4.43;;;;;;;3.77;100.00;102393.41;4995563;28;20096;-81
2022/01/31 00:03:30;;;;;;;18.60;4.35;;;;;;;3.71;100.00;102399.09;5005030;28;20119;-83
2022/01/31 00:05:56;;;;;;;14.77;2.75;;;;;;;3.51;100.00;102390.47;4978860;28;20085;-80
2022/01/31 00:08:24;;;;;;;12.00;3.67;;;;;;;3.44;100.00;102397.13;4972740;28;20038;-79
2022/01/31 00:10:51;;;;;;;18.95;3.28;;;;;;;3.26;100.00;102387.56;5026453;28;20025;-80
2022/01/31 00:13:25;;;;;;;18.88;3.55;;;;;;;3.30;100.00;102389.06;5011492;28;20048;-80
2022/01/31 00:15:56;;;;;;;20.65;3.47;;;;;;;3.56;100.00;102392.03;4974951;28;20612;-80
2022/01/31 00:18:22;;;;;;;14.25;2.67;;;;;;;3.67;100.00;102398.41;4999123;28;20061;-81
2022/01/31 00:20:48;;;;;;;19.48;3.15;;;;;;;3.72;100.00;102395.47;4996118;28;20033;-79
2022/01/31 00:23:13;;;;;;;11.48;2.17;;;;;;;3.71;100.00;102388.47;4994998;28;20128;-81
2022/01/31 00:25:42;;;;;;;19.63;3.55;;;;;;;3.72;100.00;102383.03;5008172;28;20476;-79
2022/01/31 00:28:07;;;;;;;20.85;3.40;;;;;;;3.79;100.00;102383.53;5006631;28;20041;-80
2022/01/31 00:30:33;;;;;;;20.27;3.63;;;;;;;3.94;100.00;102382.63;5004809;28;20037;-78
2022/01/31 00:32:59;;;;;;;7.85;2.42;;;;;;;4.24;100.00;102397.66;4995767;28;20372;-78
2022/01/31 00:35:26;;;;;;;17.13;3.80;;;;;;;4.22;100.00;102393.38;5000545;28;20037;-79
2022/01/31 00:37:52;;;;;;;18.65;4.03;;;;;;;4.14;100.00;102385.88;4972523;28;20380;-78
2022/01/31 00:40:19;;;;;;;29.58;4.40;;;;;;;4.16;100.00;102399.94;5009685;28;20030;-79
2022/01/31 00:42:45;;;;;;;15.50;3.83;;;;;;;4.04;100.00;102395.34;5010085;28;20084;-78
2022/01/31 00:45:20;;;;;;;17.67;3.50;;;;;;;3.99;100.00;102397.44;4989636;28;20416;-78
2022/01/31 00:47:50;;;;;;;21.95;3.38;;;;;;;3.93;100.00;102388.88;5007257;28;20124;-78
2022/01/31 00:50:18;;;;;;;16.58;2.83;;;;;;;3.96;100.00;102396.66;5014537;28;20034;-78
2022/01/31 00:52:45;;;;;;;18.42;3.35;;;;;;;4.02;100.00;102391.94;5007921;28;20049;-78
2022/01/31 00:55:14;;;;;;;21.48;3.30;;;;;;;4.16;100.00;102405.28;4992612;28;20034;-79
2022/01/31 00:57:40;;;;;;;11.18;2.70;;;;;;;4.19;100.00;102389.94;5003919;28;20041;-77
2022/01/31 01:00:07;;;;;;;22.63;3.97;;;;;;;4.29;100.00;102392.06;4975500;28;20041;-78
2022/01/31 01:02:32;;;;;;;11.35;1.90;;;;;;;4.34;100.00;102382.84;4995880;28;20083;-78
2022/01/31 01:04:58;;;;;;;11.20;2.63;;;;;;;4.25;100.00;102388.72;4991897;28;20054;-81
2022/01/31 01:07:24;;;;;;;14.05;2.20;;;;;;;4.25;100.00;102383.38;5000513;28;20116;-77
2022/01/31 01:09:49;;;;;;;16.98;4.07;;;;;;;4.31;100.00;102374.16;4977843;28;20125;-79
2022/01/31 01:12:16;;;;;;;16.00;2.85;;;;;;;4.33;100.00;102370.44;4978653;28;20365;-80
2022/01/31 01:14:42;;;;;;;10.00;1.77;;;;;;;4.49;100.00;102377.50;4994468;28;20049;-83
2022/01/31 01:17:08;;;;;;;8.10;2.85;;;;;;;4.66;100.00;102369.28;4983014;28;20383;-79
2022/01/31 01:19:34;;;;;;;13.25;3.35;;;;;;;4.56;100.00;102368.16;5015284;28;20096;-82
2022/01/31 01:22:00;;;;;;;10.40;2.70;;;;;;;4.86;100.00;102394.66;5009926;28;20041;-79
2022/01/31 01:24:26;;;;;;;7.70;2.30;;;;;;;5.03;100.00;102407.75;5007527;28;20483;-82
2022/01/31 01:26:51;;;;;;;11.15;1.85;;;;;;;5.00;100.00;102407.09;4997375;28;20033;-78
2022/01/31 01:29:19;;;;;;;15.65;2.55;;;;;;;4.91;100.00;102413.88;4995463;28;20046;-79
2022/01/31 01:31:45;;;;;;;11.63;2.67;;;;;;;4.90;100.00;102398.00;4991506;28;20217;-79
2022/01/31 01:34:11;;;;;;;14.60;2.95;;;;;;;5.22;100.00;102420.75;4995803;28;20033;-78
2022/01/31 01:36:38;;;;;;;14.07;3.05;;;;;;;5.52;100.00;102427.69;4978787;28;20037;-79
2022/01/31 01:39:07;;;;;;;9.88;2.08;;;;;;;5.53;100.00;102424.06;5002442;28;20041;-79
2022/01/31 01:41:32;;;;;;;15.32;3.05;;;;;;;5.43;100.00;102425.63;4985800;28;20037;-79
2022/01/31 01:43:58;;;;;;;10.90;2.10;;;;;;;5.19;100.00;102422.78;4980081;28;20046;-79
2022/01/31 01:46:24;;;;;;;14.95;2.97;;;;;;;4.98;100.00;102422.34;5010721;28;20067;-84
2022/01/31 01:48:49;;;;;;;16.25;4.18;;;;;;;5.17;100.00;102432.69;4990267;28;20112;-80
2022/01/31 01:51:15;;;;;;;23.20;3.97;;;;;;;5.13;100.00;102432.00;5013869;28;20040;-79
2022/01/31 01:53:41;;;;;;;9.45;2.58;;;;;;;5.32;100.00;102430.81;4995071;28;20041;-79
2022/01/31 01:56:08;;;;;;;32.03;5.28;;;;;;;5.57;100.00;102444.25;5010316;28;20032;-79
2022/01/31 01:58:41;;;;;;;12.57;2.30;;;;;;;5.67;100.00;102439.16;5005987;28;20025;-78
2022/01/31 02:01:07;;;;;;;;;;;;;;;5.61;100.00;102437.75;4996789;28;20484;-80
2022/01/31 02:03:35;;;;;;;9.05;2.08;;;;;;;5.62;100.00;102412.78;5010266;28;19972;-81
2022/01/31 02:06:02;;;;;;;14.55;3.20;;;;;;;5.53;100.00;102426.75;4995523;28;20042;-77
2022/01/31 02:08:29;;;;;;;15.38;3.20;;;;;;;5.45;100.00;102424.59;5009584;28;20036;-78
2022/01/31 02:10:55;;;;;;;18.02;3.83;;;;;;;5.65;100.00;102433.06;5005485;28;20037;-79
2022/01/31 02:13:20;;;;;;;20.88;3.20;;;;;;;5.68;100.00;102420.34;5010533;28;20038;-79
2022/01/31 02:15:51;;;;;;;23.33;4.05;;;;;;;5.78;100.00;102417.09;5013317;28;20034;-79
2022/01/31 02:18:19;;;;;;;5.60;1.50;;;;;;;5.75;100.00;102415.47;5010081;28;20034;-82
2022/01/31 02:20:45;;;;;;;30.88;5.22;;;;;;;5.86;100.00;102396.91;4995523;28;20041;-79
2022/01/31 02:23:12;;;;;;;8.02;2.10;;;;;;;5.78;100.00;102409.91;4983248;28;20034;-82
2022/01/31 02:25:55;;;;;;;15.73;2.90;;;;;;;5.69;100.00;102389.22;5016504;28;20065;-81
2022/01/31 02:28:23;;;;;;;18.17;3.13;;;;;;;5.91;100.00;102397.44;5022203;28;20117;-81
2022/01/31 02:30:49;;;;;;;23.02;4.00;;;;;;;5.97;100.00;102372.16;5011372;28;20083;-80
2022/01/31 02:33:15;;;;;;;25.77;5.38;;;;;;;6.14;99.55;102390.56;4997364;28;20037;-81
2022/01/31 02:35:41;;;;;;;9.25;2.20;;;;;;;6.15;99.01;102386.06;5008474;28;20036;-83
2022/01/31 02:38:06;;;;;;;12.68;3.22;;;;;;;5.85;100.00;102368.50;4978932;28;20076;-81
2022/01/31 02:40:33;;;;;;;16.45;3.58;;;;;;;6.24;98.08;102385.41;5003825;28;20351;-81
2022/01/31 02:42:58;;;;;;;19.75;3.25;;;;;;;6.10;97.82;102377.50;5009414;28;20495;-80
2022/01/31 02:45:24;;;;;;;17.67;3.70;;;;;;;5.97;99.34;102400.69;4991465;28;20049;-81
2022/01/31 02:47:54;;;;;;;10.38;2.60;;;;;;;5.64;100.00;102402.00;4993895;28;20084;-80
2022/01/31 02:50:20;;;;;;;17.30;1.85;;;;;;;5.47;100.00;102397.78;5012039;28;20105;-80
2022/01/31 02:52:49;;;;;;;12.07;2.42;;;;;;;5.12;100.00;102392.13;5007852;28;20533;-80
2022/01/31 02:55:16;;;;;;;12.65;2.08;;;;;;;5.06;100.00;102399.56;5005483;28;20442;-80
2022/01/31 02:57:42;;;;;;;12.15;2.60;;;;;;;5.02;100.00;102419.38;5004568;28;20034;-81
2022/01/31 03:00:10;;;;;;;18.58;2.33;;;;;;;4.98;100.00;102417.00;5014192;28;20083;-82
2022/01/31 03:02:38;;;;;;;12.98;1.75;;;;;;;4.90;100.00;102425.50;5009811;28;20431;-82
2022/01/31 03:05:04;;;;;;;6.72;1.83;;;;;;;4.90;100.00;102419.31;5008629;28;20037;-80
2022/01/31 03:07:30;;;;;;;11.07;1.85;;;;;;;4.65;100.00;102396.03;5008291;28;20435;-83
2022/01/31 03:09:56;;;;;;;12.13;2.80;;;;;;;4.75;100.00;102424.66;5006417;28;20038;-83
2022/01/31 03:12:22;;;;;;;13.02;2.45;;;;;;;4.78;100.00;102432.44;5006103;28;20038;-79
2022/01/31 03:14:48;;;;;;;12.68;2.78;;;;;;;4.50;100.00;102397.84;5025227;28;20086;-79
2022/01/31 03:17:14;;;;;;;16.58;3.67;;;;;;;4.59;100.00;102421.25;4990131;28;20125;-79
2022/01/31 03:19:42;;;;;;;7.57;2.50;;;;;;;4.87;100.00;102422.16;4989917;28;20109;-80
2022/01/31 03:22:08;;;;;;;9.75;2.05;;;;;;;4.71;100.00;102412.50;4972902;28;20038;-80
2022/01/31 03:24:35;;;;;;;12.73;2.05;;;;;;;4.74;100.00;102422.97;5012313;28;20061;-81
2022/01/31 03:27:01;;;;;;;16.65;2.80;;;;;;;4.85;100.00;102419.59;4989337;28;20522;-80
2022/01/31 03:29:27;;;;;;;6.18;1.70;;;;;;;5.10;100.00;102426.03;5010348;28;20029;-79
2022/01/31 03:31:52;;;;;;;11.07;2.53;;;;;;;5.27;100.00;102429.31;4974587;28;21205;-79
2022/01/31 03:34:18;;;;;;;26.27;4.07;;;;;;;5.39;100.00;102440.97;5006894;28;20101;-79
2022/01/31 03:36:44;;;;;;;20.63;2.72;;;;;;;5.34;100.00;102439.56;5012003;28;20029;-79
2022/01/31 03:39:10;;;;;;;11.15;2.83;;;;;;;5.32;100.00;102436.13;4989890;28;20376;-79
2022/01/31 03:41:35;;;;;;;14.82;2.22;;;;;;;5.29;100.00;102415.84;5007712;28;20040;-80
2022/01/31 03:44:01;;;;;;;9.45;2.30;;;;;;;5.69;100.00;102450.59;4973761;28;20128;-82
2022/01/31 03:46:27;;;;;;;25.10;4.47;;;;;;;5.88;100.00;102453.72;4987338;28;20030;-80
2022/01/31 03:48:53;;;;;;;28.15;3.45;;;;;;;6.03;100.00;102445.66;5004645;28;20084;-80
2022/01/31 03:51:19;;;;;;;17.70;3.22;;;;;;;5.86;100.00;102438.78;4970326;28;20141;-79
2022/01/31 03:53:44;;;;;;;22.52;4.60;;;;;;;5.88;100.00;102458.22;5016682;28;20079;-79
2022/01/31 03:56:10;;;;;;;23.50;4.05;;;;;;;6.08;98.28;102473.75;4972511;28;20033;-80
2022/01/31 03:58:36;;;;;;;8.82;2.13;;;;;;;5.98;96.70;102475.34;5021026;28;20097;-80
2022/01/31 04:01:02;;;;;;;12.43;2.03;;;;;;;5.81;98.05;102475.59;4970246;28;20042;-82
2022/01/31 04:03:28;;;;;;;10.23;2.78;;;;;;;5.93;96.89;102482.78;4977376;28;20037;-82
2022/01/31 04:05:54;;;;;;;8.93;1.92;;;;;;;5.82;97.25;102470.16;5004286;28;20042;-79
2022/01/31 04:08:22;;;;;;;9.82;2.05;;;;;;;5.86;97.36;102478.81;4999241;28;20125;-81
2022/01/31 04:10:47;;;;;;;17.42;3.55;;;;;;;5.93;97.08;102477.44;4985831;28;20486;-80
2022/01/31 04:13:16;;;;;;;16.42;3.33;;;;;;;5.62;96.67;102418.09;4970604;28;20037;-79
2022/01/31 04:15:43;;;;;;;10.48;2.35;;;;;;;6.00;95.96;102462.75;5010526;28;20033;-81
2022/01/31 04:18:09;;;;;;;18.05;2.38;;;;;;;6.03;95.83;102464.34;4997668;28;20547;-81
2022/01/31 04:20:35;;;;;;;18.05;2.88;;;;;;;6.12;95.13;102467.25;5005044;28;20125;-81
2022/01/31 04:23:07;;;;;;;18.83;2.92;;;;;;;6.26;94.20;102455.63;5007349;28;20206;-81
2022/01/31 04:25:46;;;;;;;12.98;3.13;;;;;;;6.31;92.93;102431.25;4977576;28;20053;-78
2022/01/31 04:28:26;;;;;;;18.15;2.33;;;;;;;6.33;92.82;102446.22;4977777;28;20033;-80
2022/01/31 04:31:38;;;;;;;36.50;2.92;;;;;;;6.27;94.27;102448.44;5006517;28;20033;-80
2022/01/31 04:33:50;;;;;;;15.75;3.88;;;;;;;6.34;93.52;102452.41;4991207;28;20538;-80
2022/01/31 04:36:16;;;;;;;18.45;3.33;;;;;;;6.13;94.10;102457.41;5007228;28;20025;-79
2022/01/31 04:38:43;;;;;;;16.33;2.80;;;;;;;6.08;95.31;102470.22;5011876;28;20029;-79
2022/01/31 04:41:09;;;;;;;9.05;2.47;;;;;;;5.84;96.07;102476.22;5013133;28;20057;-79
2022/01/31 04:43:35;;;;;;;10.10;2.40;;;;;;;5.60;97.33;102470.72;4992328;28;20037;-81
2022/01/31 04:46:04;;;;;;;17.33;3.03;;;;;;;5.61;98.58;102492.91;4980911;28;20037;-79
2022/01/31 04:48:29;;;;;;;16.85;2.92;;;;;;;5.55;98.66;102494.19;5022444;28;20037;-80
2022/01/31 04:50:55;;;;;;;12.90;2.70;;;;;;;5.56;98.87;102493.25;4985833;28;20037;-80
2022/01/31 04:53:21;;;;;;;15.00;2.72;;;;;;;5.55;99.27;102493.31;4994292;28;20041;-79
2022/01/31 04:55:46;;;;;;;11.65;2.50;;;;;;;5.65;99.03;102510.44;4990874;28;20391;-79
2022/01/31 04:58:13;;;;;;;19.30;3.28;;;;;;;5.82;97.98;102507.53;5012786;28;20542;-78
2022/01/31 05:00:39;;;;;;;17.55;2.33;;;;;;;5.83;97.96;102516.41;4983974;28;20037;-80
2022/01/31 05:03:11;;;;;;;19.02;3.13;;;;;;;5.92;97.38;102524.63;4994906;28;20093;-80
2022/01/31 05:05:36;;;;;;;10.07;2.65;;;;;;;5.96;97.21;102533.34;5004462;28;20515;-79
2022/01/31 05:08:02;;;;;;;16.80;3.83;;;;;;;6.13;96.75;102550.91;4991780;28;20045;-80
2022/01/31 05:10:28;;;;;;;9.52;3.03;;;;;;;6.09;96.75;102552.94;5000413;28;20042;-79
2022/01/31 05:12:54;;;;;;;14.02;3.60;;;;;;;6.18;95.93;102562.13;4996885;28;20041;-79
2022/01/31 05:15:20;;;;;;;14.63;2.78;;;;;;;6.05;96.88;102545.22;5012331;28;20034;-81
2022/01/31 05:17:45;;;;;;;15.02;3.45;;;;;;;5.94;97.70;102551.28;4995351;28;20388;-79
2022/01/31 05:20:11;;;;;;;8.27;1.60;;;;;;;5.89;98.30;102550.69;4979709;28;20037;-80
2022/01/31 05:22:37;;;;;;;17.55;3.13;;;;;;;5.78;98.74;102531.84;5026739;28;20046;-80
2022/01/31 05:25:03;;;;;;;9.20;1.80;;;;;;;5.92;99.16;102546.00;5011809;28;20040;-82
2022/01/31 05:27:29;;;;;;;19.13;2.85;;;;;;;5.98;97.44;102522.53;5013609;28;20070;-81
2022/01/31 05:29:54;;;;;;;18.60;2.35;;;;;;;6.13;97.29;102546.41;4980857;28;20026;-82
2022/01/31 05:32:20;;;;;;;16.38;3.83;;;;;;;6.08;97.01;102545.84;4997553;28;20049;-81
2022/01/31 05:34:49;;;;;;;12.57;2.67;;;;;;;6.23;96.88;102560.00;5006755;28;20025;-81
2022/01/31 05:37:14;;;;;;;23.77;3.00;;;;;;;6.20;96.64;102552.22;4977314;28;20740;-82
2022/01/31 05:39:40;;;;;;;13.45;2.90;;;;;;;6.23;96.65;102556.47;5010631;28;20038;-82
2022/01/31 05:42:06;;;;;;;26.35;4.10;;;;;;;6.23;97.30;102572.50;4993023;28;20048;-84
2022/01/31 05:44:32;;;;;;;23.17;3.35;;;;;;;6.23;96.89;102570.69;4993282;28;20495;-84
2022/01/31 05:47:00;;;;;;;21.35;3.13;;;;;;;6.28;97.07;102565.91;5015131;28;20038;-80
2022/01/31 05:49:26;;;;;;;16.15;2.47;;;;;;;6.19;96.88;102546.94;5011204;28;20042;-81
2022/01/31 05:52:01;;;;;;;18.20;3.10;;;;;;;6.22;96.98;102534.28;5015433;28;20500;-80
2022/01/31 05:54:29;;;;;;;15.45;2.72;;;;;;;6.15;97.02;102536.47;4993398;28;20067;-81
2022/01/31 05:56:58;;;;;;;21.70;4.15;;;;;;;6.47;93.90;102538.78;5006018;28;20121;-84
2022/01/31 05:59:24;;;;;;;25.00;4.53;;;;;;;6.59;92.71;102529.94;5007166;28;20162;-83
2022/01/31 06:01:50;;;;;;;12.80;2.20;;;;;;;6.49;93.00;102550.22;4993934;28;20045;-81
2022/01/31 06:04:16;;;;;;;16.02;3.45;;;;;;;6.34;93.93;102552.13;4992069;28;20361;-80
2022/01/31 06:06:42;;;;;;;23.80;3.72;;;;;;;6.16;94.95;102556.88;5010237;28;20034;-81
2022/01/31 06:09:08;;;;;;;12.43;2.47;;;;;;;6.16;95.38;102556.88;5013727;28;20042;-80
2022/01/31 06:11:34;;;;;;;9.70;2.05;;;;;;;6.23;94.60;102559.16;5007484;28;20029;-83
2022/01/31 06:14:01;;;;;;;17.10;2.85;;;;;;;6.07;94.77;102540.63;5005774;28;20037;-81
2022/01/31 06:16:27;;;;;;;15.00;2.78;;;;;;;6.25;94.24;102549.22;5014911;28;20251;-81
2022/01/31 06:18:53;;;;;;;15.07;3.60;;;;;;;6.38;94.48;102564.31;5008614;28;20497;-82
2022/01/31 06:21:19;;;;;;;12.55;1.98;;;;;;;6.33;93.67;102553.09;4995304;28;20065;-81
2022/01/31 06:23:44;;;;;;;7.25;1.65;;;;;;;6.41;92.99;102547.22;5004539;28;20108;-81
2022/01/31 06:26:10;;;;;;;22.38;3.67;;;;;;;6.43;94.20;102569.38;5016231;28;20112;-81
2022/01/31 06:28:36;;;;;;;17.65;3.05;;;;;;;6.55;93.66;102581.00;5020332;28;20442;-81
2022/01/31 06:31:02;;;;;;;19.27;2.97;;;;;;;6.48;93.70;102585.91;4994396;28;20042;-83
2022/01/31 06:33:28;;;;;;;14.18;3.60;;;;;;;6.49;94.12;102578.78;4977153;28;20038;-82
2022/01/31 06:35:53;;;;;;;12.60;3.10;;;;;;;6.49;93.92;102584.97;4992853;28;20037;-81
2022/01/31 06:38:21;;;;;;;15.95;2.15;;;;;;;6.47;94.15;102576.19;4978448;28;20038;-80
2022/01/31 06:40:47;;;;;;;18.38;3.08;;;;;;;6.53;94.18;102582.94;5007816;28;20056;-81
2022/01/31 06:43:13;;;;;;;13.60;3.90;;;;;;;6.56;94.33;102585.38;4988516;28;20045;-80
2022/01/31 06:45:39;;;;;;;12.77;3.72;;;;;;;6.58;93.92;102587.00;4988131;28;20044;-81
2022/01/31 06:48:06;;;;;;;10.88;2.20;;;;;;;6.72;93.46;102590.53;4984259;28;20069;-81
2022/01/31 06:50:32;;;;;;;15.32;3.65;;;;;;;6.68;93.96;102602.41;5004216;28;20509;-80
2022/01/31 06:52:57;;;;;;;16.35;2.55;;;;;;;6.74;93.34;102594.81;4989293;28;22556;-81
2022/01/31 06:55:23;;;;;;;18.33;3.50;;;;;;;6.79;93.35;102603.38;5006789;28;20030;-81
2022/01/31 06:57:51;;;;;;;23.85;3.35;;;;;;;6.74;93.73;102600.16;5016285;28;20025;-81
2022/01/31 07:00:18;;;;;;;13.20;2.58;;;;;;;6.73;94.15;102614.50;5015595;28;20041;-80
2022/01/31 07:02:45;;;;;;;23.10;3.90;;;;;;;6.57;94.47;102609.34;4997730;28;20029;-81
2022/01/31 07:05:13;;;;;;;16.55;2.40;;;;;;;6.04;95.30;102562.22;4977685;28;20038;-81
2022/01/31 07:07:39;;;;;;;13.63;1.90;;;;;;;6.16;96.40;102610.28;5006498;28;20155;-80
2022/01/31 07:10:05;;;;;;;16.75;2.92;;;;;;;5.98;97.40;102608.00;5008684;28;20044;-80
2022/01/31 07:12:38;;;;;;;20.35;3.05;;;;;;;5.95;98.29;102611.72;5008158;28;20072;-80
2022/01/31 07:15:05;;;;;;;21.20;3.50;;;;;;;6.00;97.75;102612.28;4986471;28;20093;-81
2022/01/31 07:17:31;;;;;;;21.73;3.22;;;;;;;6.12;97.66;102623.97;5006847;28;20405;-79
2022/01/31 07:19:58;;;;;;;17.45;2.33;;;;;;;6.16;97.17;102625.47;5009596;28;20476;-80
2022/01/31 07:22:32;;;;;;;19.40;2.92;;;;;;;6.28;96.28;102619.31;4989910;28;20037;-80
2022/01/31 07:25:03;;;;;;;5.47;2.22;;;;;;;6.35;95.74;102625.97;4995185;28;20038;-79
2022/01/31 07:27:29;;;;;;;14.43;2.67;;;;;;;6.47;94.54;102632.31;4994776;28;20503;-81
2022/01/31 07:29:55;;;;;;;20.52;3.75;;;;;;;6.52;93.99;102638.19;4992725;28;20034;-82
2022/01/31 07:32:20;;;;;;;12.68;2.85;;;;;;;6.52;94.18;102640.88;4990418;28;20469;-80
2022/01/31 07:34:46;;;;;;;22.90;5.00;;;;;;;6.57;93.07;102624.53;4992951;28;20145;-83
2022/01/31 07:37:12;;;;;;;28.05;4.20;;;;;;;6.77;91.93;102649.91;5012218;28;20025;-80
2022/01/31 07:39:40;;;;;;;12.73;2.92;;;;;;;6.73;91.17;102643.06;5009263;28;20038;-80
2022/01/31 07:42:06;;;;;;;13.90;2.75;;;;;;;6.71;91.49;102634.28;4988553;28;20041;-79
2022/01/31 07:44:32;;;;;;;12.30;2.10;;;;;;;6.63;91.33;102626.78;5007936;28;20064;-81
2022/01/31 07:46:57;;;;;;;17.15;2.83;;;;;;;6.69;91.49;102636.19;4973767;28;20050;-80
2022/01/31 07:49:23;;;;;;;8.00;1.73;;;;;;;6.71;91.25;102634.28;4975194;28;20041;-80
2022/01/31 07:51:49;;;;;;;18.38;2.30;;;;;;;6.63;91.36;102642.81;5035654;28;20038;-82
2022/01/31 07:54:18;;;;;;;11.95;3.35;;;;;;;6.41;92.56;102631.88;4989323;28;20502;-79
2022/01/31 07:56:43;;;;;;;11.40;2.05;;;;;;;6.33;93.06;102629.72;5010531;28;20042;-80
2022/01/31 07:59:09;;;;;;;10.32;2.80;;;;;;;6.18;94.10;102631.56;5007405;28;20029;-82
2022/01/31 08:01:35;;;;;;;14.02;2.60;;;;;;;6.14;94.69;102656.78;5000166;28;20037;-80
2022/01/31 08:04:00;;;;;;;13.93;3.40;;;;;;;6.06;95.75;102643.94;4977334;28;20030;-79
2022/01/31 08:06:26;;;;;;;8.75;2.40;;;;;;;6.06;95.50;102649.28;5010699;28;20053;-80
2022/01/31 08:08:52;;;;;;;25.00;4.22;;;;;;;5.87;96.70;102640.69;5008227;28;20113;-85
2022/01/31 08:11:17;;;;;;;13.25;2.45;;;;;;;5.84;97.91;102641.75;4976503;28;20498;-79
2022/01/31 08:13:43;;;;;;;14.88;3.28;;;;;;;5.79;97.98;102649.19;5011113;28;20025;-80
2022/01/31 08:18:39;;;;;;;12.45;1.75;;;;;;;5.44;99.89;102646.94;5005628;28;20498;-81
2022/01/31 08:21:06;;;;;;;16.85;2.90;;;;;;;5.39;100.00;102657.06;4996070;28;20111;-80
2022/01/31 08:23:32;;;;;;;11.02;2.15;;;;;;;5.46;100.00;102647.72;4997597;28;20452;-82
2022/01/31 08:26:01;;;;;;;17.10;3.20;;;;;;;5.48;100.00;102643.16;4989186;28;20045;-82
2022/01/31 08:28:40;;;;;;;9.50;2.38;;;;;;;5.73;100.00;102623.75;4995781;28;20034;-81
2022/01/31 08:31:14;;;;;;;21.02;4.35;;;;;;;5.82;100.00;102641.00;5000702;28;20038;-81
2022/01/31 08:34:02;;;;;;;8.85;2.28;;;;;;;5.86;99.93;102645.19;5013679;28;20089;-80
2022/01/31 08:36:31;;;;;;;18.45;3.45;;;;;;;6.01;100.00;102656.72;5015474;28;20040;-80
2022/01/31 08:38:56;;;;;;;18.90;3.47;;;;;;;5.93;100.00;102651.88;5006550;28;20514;-79
2022/01/31 08:41:23;;;;;;;10.45;3.63;;;;;;;5.98;100.00;102654.25;5014851;28;20069;-82
2022/01/31 08:43:49;;;;;;;8.82;2.45;;;;;;;6.02;100.00;102663.78;4997452;28;20375;-80
2022/01/31 08:46:15;;;;;;;20.67;3.92;;;;;;;6.18;100.00;102660.09;4982271;28;20044;-79
2022/01/31 08:48:42;;;;;;;15.38;3.90;;;;;;;6.37;100.00;102650.75;5001814;28;20026;-80
2022/01/31 08:51:11;;;;;;;26.00;3.90;;;;;;;6.53;100.00;102673.78;5012905;28;20080;-80
2022/01/31 08:53:40;;;;;;;14.65;3.80;;;;;;;6.62;99.56;102667.84;5004230;28;20042;-79
2022/01/31 08:56:11;;;;;;;15.23;2.58;;;;;;;6.50;99.80;102656.16;4998299;28;20057;-80
2022/01/31 08:58:43;;;;;;;17.42;3.25;;;;;;;6.51;100.00;102673.91;4978503;28;20042;-80
2022/01/31 09:01:11;;;;;;;11.75;1.58;;;;;;;6.56;100.00;102663.78;4998328;28;20485;-80
2022/01/31 09:06:07;;;;;;;20.05;2.95;;;;;;;6.51;100.00;102665.91;4993915;28;20157;-80
2022/01/31 09:08:33;;;;;;;11.35;2.10;;;;;;;6.51;100.00;102671.25;4973150;28;20129;-80
2022/01/31 09:10:59;;;;;;;9.13;1.90;;;;;;;6.50;100.00;102669.50;5009554;28;20041;-81
2022/01/31 09:13:25;;;;;;;16.80;4.13;;;;;;;6.54;100.00;102676.38;5011953;28;20060;-80
2022/01/31 09:15:54;;;;;;;19.70;3.30;;;;;;;6.53;100.00;102677.31;4992830;28;20076;-81
2022/01/31 09:18:20;;;;;;;18.55;3.20;;;;;;;6.58;100.00;102675.19;5004364;28;20034;-88
2022/01/31 09:20:46;;;;;;;27.58;3.53;;;;;;;6.59;100.00;102668.91;5005006;28;20096;-80
2022/01/31 09:23:12;;;;;;;13.35;2.75;;;;;;;6.72;100.00;102673.41;5013395;28;20120;-80
2022/01/31 09:25:43;;;;;;;17.13;2.75;;;;;;;6.81;100.00;102676.31;5003877;28;20030;-80
2022/01/31 09:28:10;;;;;;;16.38;3.67;;;;;;;6.97;100.00;102683.31;5008015;28;20042;-81
2022/01/31 09:30:37;;;;;;;23.38;4.07;;;;;;;7.00;100.00;102677.75;4988239;28;20041;-82
2022/01/31 09:33:05;;;;;;;18.83;3.60;;;;;;;7.25;98.36;102677.78;4988991;28;20073;-80
2022/01/31 09:35:31;;;;;;;8.88;2.13;;;;;;;7.12;97.66;102659.97;5008728;28;20057;-80
2022/01/31 09:37:56;;;;;;;16.05;2.45;;;;;;;7.20;98.21;102679.06;4982945;28;20038;-80
2022/01/31 09:40:23;;;;;;;17.73;3.35;;;;;;;7.33;97.37;102684.38;4994042;28;20115;-81
2022/01/31 09:46:00;;;;;;;12.00;2.28;;;;;;;7.75;94.13;102701.06;4986020;28;20087;-84
2022/01/31 09:51:09;;;;;;;12.80;2.40;;;;;;;7.99;91.88;102717.19;5013564;28;20113;-86
2022/01/31 09:53:43;;;;;;;10.80;1.92;;;;;;;8.05;91.16;102719.44;5011897;28;20133;-86
2022/01/31 09:56:12;;;;;;;11.75;3.10;;;;;;;8.00;91.46;102721.59;5012138;28;20092;-85
2022/01/31 09:58:39;;;;;;;13.90;2.72;;;;;;;7.98;91.26;102710.97;4994609;28;20033;-87
2022/01/31 10:01:11;;;;;;;14.95;3.22;;;;;;;7.99;91.75;102719.84;5012431;28;20048;-86
2022/01/31 10:03:47;;;;;;;9.55;2.22;;;;;;;8.03;91.08;102716.84;4995173;28;20034;-85
2022/01/31 10:06:20;;;;;;;4.55;1.20;;;;;;;8.00;91.63;102727.81;5013285;28;20030;-87
2022/01/31 10:08:46;;;;;;;13.23;2.80;;;;;;;8.06;90.69;102721.13;5012047;28;20476;-86
2022/01/31 10:11:28;;;;;;;17.42;3.00;;;;;;;7.92;92.16;102738.22;5012112;28;20076;-86
2022/01/31 10:16:45;;;;;;;13.60;3.00;;;;;;;7.78;93.36;102741.00;5012284;28;20026;-85
2022/01/31 10:19:11;;;;;;;24.20;5.17;;;;;;;7.91;92.29;102740.03;4995989;28;20065;-85
2022/01/31 10:21:56;;;;;;;14.63;2.17;;;;;;;8.00;91.42;102748.38;5011952;28;20092;-85
2022/01/31 10:24:24;;;;;;;12.25;2.35;;;;;;;8.04;91.80;102737.31;5009041;28;20053;-85
2022/01/31 10:26:50;;;;;;;10.15;2.15;;;;;;;8.15;90.42;102739.25;5012014;28;20037;-85
2022/01/31 10:29:16;;;;;;;14.90;2.20;;;;;;;8.32;90.55;102746.88;5011746;28;20033;-86
2022/01/31 10:32:06;;;;;;;4.45;1.70;;;;;;;8.43;90.21;102756.84;4995477;28;20557;-86
2022/01/31 10:34:35;;;;;;;17.17;2.90;;;;;;;8.54;88.12;102745.34;4978131;28;20602;-85
2022/01/31 10:37:10;;;;;;;16.48;3.72;;;;;;;8.69;87.63;102757.59;4995323;28;20049;-85
2022/01/31 10:50:48;;;;;;;13.77;3.53;;;;;;;9.17;85.87;102762.06;4992667;28;20033;-80
2022/01/31 10:53:15;;;;;;;17.85;2.47;;;;;;;9.22;86.39;102765.25;4978619;28;20038;-81
2022/01/31 10:55:41;;;;;;;12.35;2.05;;;;;;;9.17;86.74;102768.28;5007716;28;20116;-83
2022/01/31 10:58:09;;;;;;;13.45;3.00;;;;;;;8.96;86.82;102759.19;4990090;28;20125;-83
2022/01/31 11:00:40;;;;;;;18.50;3.08;;;;;;;9.12;86.44;102773.13;5004433;28;20120;-82
2022/01/31 11:03:32;;;;;;;14.32;2.88;;;;;;;9.20;86.51;102777.94;4991030;28;20037;-82
2022/01/31 11:06:01;;;;;;;15.77;3.55;;;;;;;9.12;87.43;102774.97;4985951;28;20403;-82
2022/01/31 11:08:29;;;;;;;17.80;3.05;;;;;;;9.01;87.69;102768.59;4976734;28;20541;-83
2022/01/31 11:10:59;;;;;;;14.25;3.22;;;;;;;9.11;87.75;102779.50;5004156;28;20105;-83
2022/01/31 11:13:26;;;;;;;16.08;2.58;;;;;;;9.06;87.71;102754.84;4992087;28;20120;-83
2022/01/31 11:15:56;;;;;;;13.40;2.83;;;;;;;9.24;87.48;102769.53;4996059;28;20129;-83
2022/01/31 11:18:23;;;;;;;19.02;3.38;;;;;;;9.40;87.25;102762.97;4991200;28;20037;-83
2022/01/31 11:20:57;;;;;;;13.05;2.33;;;;;;;9.48;85.87;102740.91;4977478;28;20542;-83
2022/01/31 11:23:28;;;;;;;15.50;3.45;;;;;;;9.52;86.77;102756.63;5005314;28;20033;-83
2022/01/31 11:25:59;;;;;;;14.95;2.40;;;;;;;9.39;86.62;102739.78;5009317;28;20029;-83
2022/01/31 11:28:29;;;;;;;15.45;2.70;;;;;;;9.40;87.83;102769.19;4988524;28;20033;-83
2022/01/31 11:30:55;;;;;;;16.05;2.40;;;;;;;9.23;87.91;102754.41;5005175;28;20048;-83
2022/01/31 11:33:21;;;;;;;17.10;2.60;;;;;;;9.18;88.79;102770.00;4977812;28;20480;-83
2022/01/31 11:35:48;;;;;;;22.75;3.53;;;;;;;9.16;88.89;102771.94;4991741;28;20033;-85
2022/01/31 11:38:14;;;;;;;21.17;2.47;;;;;;;9.06;89.49;102780.81;5010114;28;20654;-87
2022/01/31 11:40:39;;;;;;;10.18;3.70;;;;;;;8.82;91.61;102772.78;5008434;28;20472;-84
2022/01/31 11:43:06;;;;;;;14.52;3.00;;;;;;;8.79;93.67;102773.88;5010559;28;20060;-85
2022/01/31 11:45:39;;;;;;;13.30;3.40;;;;;;;8.74;94.15;102784.94;5009942;28;20056;-87
2022/01/31 11:48:10;;;;;;;16.48;2.35;;;;;;;8.63;94.72;102758.06;5009830;28;20092;-85
2022/01/31 11:50:44;;;;;;;17.35;2.42;;;;;;;8.79;94.22;102761.31;5010269;28;20058;-84